Helena — SCGL — position and weather

sailwx.info

Track history (hours):
 
Tides and Currents Weather Stations Pressure Air Temp Water Temp Dewpoint Dewpoint Depression Visibility Wind Speed Wind Dir Waves Ship Positions

Helena

Last reported at 2014-Jul-29 21:20 UTC. Time now 2014-Aug-01 09:52 UTC.
Position N 60°04' E 019°20'.

Length 169 m; draft 6.2 m.

Type: Cargo ship. MMSI: 265145000.

Date/timePositionNaut miles runAvg speedWind from/ knotsBaromVisibWave heightAir tempDewpointWater temp
2014-Jul-29 21:20N 60°04' E 019°20'1316.0
2014-Jul-29 20:33N 59°54' E 019°35'3115.5
2014-Jul-29 18:33N 59°29' E 020°11'6816.9
2014-Jul-29 14:33N 58°32' E 018°59'1616.4
2014-Jul-29 13:33N 58°18' E 018°43'1616.3
2014-Jul-29 12:33N 58°04' E 018°27'1616.4
2014-Jul-29 11:33N 57°50' E 018°12'1616.3
2014-Jul-29 10:33N 57°35' E 017°57'1616.2
2014-Jul-29 09:33N 57°21' E 017°44'1616.3
2014-Jul-29 08:33N 57°05' E 017°33'1716.7
2014-Jul-29 07:33N 56°50' E 017°21'1716.6
2014-Jul-29 06:33N 56°35' E 017°10'1616.5
2014-Jul-29 05:33N 56°19' E 016°59'1616.4
2014-Jul-29 04:33N 56°04' E 016°47'1816.4
2014-Jul-29 03:28N 55°55' E 016°19'1516.2
2014-Jul-29 02:33N 55°48' E 015°56'1616.3
2014-Jul-29 01:33N 55°40' E 015°32'1716.6
2014-Jul-29 00:33N 55°31' E 015°06'1716.7
2014-Jul-28 23:33N 55°23' E 014°40'1716.8
2014-Jul-28 22:33N 55°10' E 014°22'1616.3
2014-Jul-28 21:33N 54°60' E 014°00'1716.6
2014-Jul-28 20:33N 54°54' E 013°33'1616.5
2014-Jul-28 19:33N 54°49' E 013°06'1616.4
2014-Jul-28 18:33N 54°42' E 012°40'1615.8
2014-Jul-28 17:33N 54°32' E 012°19'1515.3
2014-Jul-28 16:33N 54°23' E 011°58'1616.1
2014-Jul-28 15:33N 54°15' E 011°34'1616.0
2014-Jul-28 14:33N 54°06' E 011°11'1512.9
2014-Jul-28 13:25N 53°57' E 010°52'4 0.6
2014-Jul-28 06:19N 53°54' E 010°47'3 0.8
2014-Jul-28 03:05N 53°55' E 010°51'3 6.3
2014-Jul-28 02:33N 53°58' E 010°53'1312.5
2014-Jul-28 01:32N 54°07' E 011°08'1313.7
2014-Jul-28 00:33N 54°15' E 011°27'1413.8
2014-Jul-27 23:33N 54°21' E 011°47'1313.3
2014-Jul-27 22:33N 54°27' E 012°08'1313.0
2014-Jul-27 21:33N 54°39' E 012°18'1413.7
2014-Jul-27 20:34N 54°46' E 012°38'1413.5
2014-Jul-27 19:34N 54°51' E 012°60'1313.4
2014-Jul-27 18:34N 54°56' E 013°22'1313.2
2014-Jul-27 17:34N 54°60' E 013°44'1211.5
2014-Jul-27 16:33N 55°04' E 014°03'9 9.1
2014-Jul-27 15:32N 55°10' E 014°14'9 9.6
2014-Jul-27 14:33N 55°18' E 014°24'9 9.3
2014-Jul-27 13:33N 55°25' E 014°35'9 8.9
2014-Jul-27 12:33N 55°30' E 014°48'10 8.9
2014-Jul-27 11:26N 55°35' E 015°03'8 9.0
2014-Jul-27 10:31N 55°39' E 015°15'9 9.3
2014-Jul-27 09:31N 55°44' E 015°30'9 9.4
2014-Jul-27 08:33N 55°49' E 015°43'1010.2
2014-Jul-27 07:33N 55°54' E 015°59'32 9.8
2014-Jul-27 04:17N 56°13' E 016°46'810.0
2014-Jul-27 03:28N 56°20' E 016°50'910.2
2014-Jul-27 02:33N 56°29' E 016°54'1010.1
2014-Jul-27 01:34N 56°39' E 016°59'11 9.9
2014-Jul-27 00:30N 56°49' E 017°04'9 9.9
2014-Jul-26 23:33N 56°58' E 017°09'10 9.6
2014-Jul-26 22:34N 57°08' E 017°14'10 9.8
2014-Jul-26 21:34N 57°17' E 017°20'10 9.6
2014-Jul-26 20:33N 57°26' E 017°23'1010.0
2014-Jul-26 19:33N 57°36' E 017°23'1010.0
2014-Jul-26 18:33N 57°46' E 017°24'10 9.9
2014-Jul-26 17:34N 57°56' E 017°24'1010.0
2014-Jul-26 16:31N 58°06' E 017°24'2110.1
2014-Jul-26 14:29N 58°22' E 017°49'1010.4
2014-Jul-26 13:34N 58°29' E 018°02'1010.1
2014-Jul-26 12:34N 58°36' E 018°16'1010.1
2014-Jul-26 11:34N 58°44' E 018°29'1010.4
2014-Jul-26 10:34N 58°51' E 018°43'3410.5
2014-Jul-26 07:17N 59°15' E 019°31'1210.9
2014-Jul-26 06:11N 59°24' E 019°47'710.7
2014-Jul-26 05:30N 59°29' E 019°56'3110.4
2014-Jul-26 02:33N 59°56' E 019°26'  
2014-Jul-23 00:33N 60°15' E 019°02'1816.5
2014-Jul-22 23:28N 60°00' E 019°23'1516.7
2014-Jul-22 22:33N 59°49' E 019°43'2116.5
2014-Jul-22 21:19N 59°34' E 020°10'8516.5
2014-Jul-22 16:10N 58°21' E 018°46'1016.7
2014-Jul-22 15:33N 58°12' E 018°36'1716.5
2014-Jul-22 14:34N 57°58' E 018°20'1616.3
2014-Jul-22 13:33N 57°44' E 018°05'1615.9
2014-Jul-22 12:34N 57°30' E 017°50'1616.2
2014-Jul-22 11:34N 57°15' E 017°40'1616.4
2014-Jul-22 10:34N 56°59' E 017°28'1716.7
2014-Jul-22 09:34N 56°44' E 017°17'1716.6
2014-Jul-22 08:33N 56°29' E 017°06'1616.2
2014-Jul-22 07:33N 56°13' E 016°55'1515.2
2014-Jul-22 06:34N 56°01' E 016°38'1616.0
2014-Jul-22 05:34N 55°54' E 016°13'1615.8
2014-Jul-22 04:34N 55°46' E 015°49'1615.7
2014-Jul-22 03:33N 55°38' E 015°24'1615.8
2014-Jul-22 02:33N 55°31' E 015°00'1615.9
2014-Jul-22 01:33N 55°22' E 014°36'1615.8
2014-Jul-22 00:34N 55°10' E 014°20'1515.4
2014-Jul-21 23:33N 54°59' E 013°60'1615.9
2014-Jul-21 22:33N 54°54' E 013°34'1615.8
2014-Jul-21 21:34N 54°49' E 013°08'1615.6
2014-Jul-21 20:34N 54°44' E 012°42'415.4
2014-Jul-21 20:18N 54°41' E 012°37'1115.2
2014-Jul-21 19:34N 54°33' E 012°23'1413.9
2014-Jul-21 18:33N 54°24' E 012°05'1413.9
2014-Jul-21 17:33N 54°18' E 011°43'1414.4
2014-Jul-21 16:33N 54°10' E 011°23'1413.4
2014-Jul-21 15:32N 54°03' E 011°03'9 9.4
2014-Jul-21 14:33N 53°56' E 010°52'4 0.2
2014-Jul-20 15:26N 53°54' E 010°47'0 0.0
2014-Jul-20 11:29N 53°54' E 010°47'0 0.0
2014-Jul-20 10:29N 53°54' E 010°47'1 1.0
2014-Jul-20 09:25N 53°54' E 010°49'6 6.8
2014-Jul-20 08:33N 53°59' E 010°55'1312.9
2014-Jul-20 07:33N 54°08' E 011°10'1515.2
2014-Jul-20 06:34N 54°16' E 011°32'1616.0
2014-Jul-20 05:34N 54°24' E 011°56'1313.5
2014-Jul-20 04:34N 54°33' E 012°13'1514.8
2014-Jul-20 03:34N 54°43' E 012°31'1312.9
2014-Jul-20 02:34N 54°52' E 012°49'3 3.3
2014-Jul-20 01:33N 54°53' E 012°54'2 2.0
2014-Jul-20 00:33N 54°52' E 012°56'1110.9
2014-Jul-19 23:33N 54°54' E 013°15'1211.6
2014-Jul-19 22:33N 54°58' E 013°34'1414.0
2014-Jul-19 21:34N 55°03' E 013°57'  
Track history (hours):
 
Tides and Currents Weather Stations Pressure Air Temp Water Temp Dewpoint Dewpoint Depression Visibility Wind Speed Wind Dir Waves Ship Positions

Helena

Last reported at 2014-Jul-29 21:20 UTC. Time now 2014-Aug-01 09:52 UTC.
Position N 60°04' E 019°20'.

Length 169 m; draft 6.2 m.

Type: Cargo ship. MMSI: 265145000.

Date/timePositionNaut miles runAvg speedWind from/ knotsBaromVisibWave heightAir tempDewpointWater temp
2014-Jul-29 21:20N 60°04' E 019°20'1316.0
2014-Jul-29 20:33N 59°54' E 019°35'3115.5
2014-Jul-29 18:33N 59°29' E 020°11'6816.9
2014-Jul-29 14:33N 58°32' E 018°59'1616.4
2014-Jul-29 13:33N 58°18' E 018°43'1616.3
2014-Jul-29 12:33N 58°04' E 018°27'1616.4
2014-Jul-29 11:33N 57°50' E 018°12'1616.3
2014-Jul-29 10:33N 57°35' E 017°57'1616.2
2014-Jul-29 09:33N 57°21' E 017°44'1616.3
2014-Jul-29 08:33N 57°05' E 017°33'1716.7
2014-Jul-29 07:33N 56°50' E 017°21'1716.6
2014-Jul-29 06:33N 56°35' E 017°10'1616.5
2014-Jul-29 05:33N 56°19' E 016°59'1616.4
2014-Jul-29 04:33N 56°04' E 016°47'1816.4
2014-Jul-29 03:28N 55°55' E 016°19'1516.2
2014-Jul-29 02:33N 55°48' E 015°56'1616.3
2014-Jul-29 01:33N 55°40' E 015°32'1716.6
2014-Jul-29 00:33N 55°31' E 015°06'1716.7
2014-Jul-28 23:33N 55°23' E 014°40'1716.8
2014-Jul-28 22:33N 55°10' E 014°22'1616.3
2014-Jul-28 21:33N 54°60' E 014°00'1716.6
2014-Jul-28 20:33N 54°54' E 013°33'1616.5
2014-Jul-28 19:33N 54°49' E 013°06'1616.4
2014-Jul-28 18:33N 54°42' E 012°40'1615.8
2014-Jul-28 17:33N 54°32' E 012°19'1515.3
2014-Jul-28 16:33N 54°23' E 011°58'1616.1
2014-Jul-28 15:33N 54°15' E 011°34'1616.0
2014-Jul-28 14:33N 54°06' E 011°11'1512.9
2014-Jul-28 13:25N 53°57' E 010°52'4 0.6
2014-Jul-28 06:19N 53°54' E 010°47'3 0.8
2014-Jul-28 03:05N 53°55' E 010°51'3 6.3
2014-Jul-28 02:33N 53°58' E 010°53'1312.5
2014-Jul-28 01:32N 54°07' E 011°08'1313.7
2014-Jul-28 00:33N 54°15' E 011°27'1413.8
2014-Jul-27 23:33N 54°21' E 011°47'1313.3
2014-Jul-27 22:33N 54°27' E 012°08'1313.0
2014-Jul-27 21:33N 54°39' E 012°18'1413.7
2014-Jul-27 20:34N 54°46' E 012°38'1413.5
2014-Jul-27 19:34N 54°51' E 012°60'1313.4
2014-Jul-27 18:34N 54°56' E 013°22'1313.2
2014-Jul-27 17:34N 54°60' E 013°44'1211.5
2014-Jul-27 16:33N 55°04' E 014°03'9 9.1
2014-Jul-27 15:32N 55°10' E 014°14'9 9.6
2014-Jul-27 14:33N 55°18' E 014°24'9 9.3
2014-Jul-27 13:33N 55°25' E 014°35'9 8.9
2014-Jul-27 12:33N 55°30' E 014°48'10 8.9
2014-Jul-27 11:26N 55°35' E 015°03'8 9.0
2014-Jul-27 10:31N 55°39' E 015°15'9 9.3
2014-Jul-27 09:31N 55°44' E 015°30'9 9.4
2014-Jul-27 08:33N 55°49' E 015°43'1010.2
2014-Jul-27 07:33N 55°54' E 015°59'32 9.8
2014-Jul-27 04:17N 56°13' E 016°46'810.0
2014-Jul-27 03:28N 56°20' E 016°50'910.2
2014-Jul-27 02:33N 56°29' E 016°54'1010.1
2014-Jul-27 01:34N 56°39' E 016°59'11 9.9
2014-Jul-27 00:30N 56°49' E 017°04'9 9.9
2014-Jul-26 23:33N 56°58' E 017°09'10 9.6
2014-Jul-26 22:34N 57°08' E 017°14'10 9.8
2014-Jul-26 21:34N 57°17' E 017°20'10 9.6
2014-Jul-26 20:33N 57°26' E 017°23'1010.0
2014-Jul-26 19:33N 57°36' E 017°23'1010.0
2014-Jul-26 18:33N 57°46' E 017°24'10 9.9
2014-Jul-26 17:34N 57°56' E 017°24'1010.0
2014-Jul-26 16:31N 58°06' E 017°24'2110.1
2014-Jul-26 14:29N 58°22' E 017°49'1010.4
2014-Jul-26 13:34N 58°29' E 018°02'1010.1
2014-Jul-26 12:34N 58°36' E 018°16'1010.1
2014-Jul-26 11:34N 58°44' E 018°29'1010.4
2014-Jul-26 10:34N 58°51' E 018°43'3410.5
2014-Jul-26 07:17N 59°15' E 019°31'1210.9
2014-Jul-26 06:11N 59°24' E 019°47'710.7
2014-Jul-26 05:30N 59°29' E 019°56'3110.4
2014-Jul-26 02:33N 59°56' E 019°26'  
2014-Jul-23 00:33N 60°15' E 019°02'1816.5
2014-Jul-22 23:28N 60°00' E 019°23'1516.7
2014-Jul-22 22:33N 59°49' E 019°43'2116.5
2014-Jul-22 21:19N 59°34' E 020°10'8516.5
2014-Jul-22 16:10N 58°21' E 018°46'1016.7
2014-Jul-22 15:33N 58°12' E 018°36'1716.5
2014-Jul-22 14:34N 57°58' E 018°20'1616.3
2014-Jul-22 13:33N 57°44' E 018°05'1615.9
2014-Jul-22 12:34N 57°30' E 017°50'1616.2
2014-Jul-22 11:34N 57°15' E 017°40'1616.4
2014-Jul-22 10:34N 56°59' E 017°28'1716.7
2014-Jul-22 09:34N 56°44' E 017°17'1716.6
2014-Jul-22 08:33N 56°29' E 017°06'1616.2
2014-Jul-22 07:33N 56°13' E 016°55'1515.2
2014-Jul-22 06:34N 56°01' E 016°38'1616.0
2014-Jul-22 05:34N 55°54' E 016°13'1615.8
2014-Jul-22 04:34N 55°46' E 015°49'1615.7
2014-Jul-22 03:33N 55°38' E 015°24'1615.8
2014-Jul-22 02:33N 55°31' E 015°00'1615.9
2014-Jul-22 01:33N 55°22' E 014°36'1615.8
2014-Jul-22 00:34N 55°10' E 014°20'1515.4
2014-Jul-21 23:33N 54°59' E 013°60'1615.9
2014-Jul-21 22:33N 54°54' E 013°34'1615.8
2014-Jul-21 21:34N 54°49' E 013°08'1615.6
2014-Jul-21 20:34N 54°44' E 012°42'415.4
2014-Jul-21 20:18N 54°41' E 012°37'1115.2
2014-Jul-21 19:34N 54°33' E 012°23'1413.9
2014-Jul-21 18:33N 54°24' E 012°05'1413.9
2014-Jul-21 17:33N 54°18' E 011°43'1414.4
2014-Jul-21 16:33N 54°10' E 011°23'1413.4
2014-Jul-21 15:32N 54°03' E 011°03'9 9.4
2014-Jul-21 14:33N 53°56' E 010°52'4 0.2
2014-Jul-20 15:26N 53°54' E 010°47'0 0.0
2014-Jul-20 11:29N 53°54' E 010°47'0 0.0
2014-Jul-20 10:29N 53°54' E 010°47'1 1.0
2014-Jul-20 09:25N 53°54' E 010°49'6 6.8
2014-Jul-20 08:33N 53°59' E 010°55'1312.9
2014-Jul-20 07:33N 54°08' E 011°10'1515.2
2014-Jul-20 06:34N 54°16' E 011°32'1616.0
2014-Jul-20 05:34N 54°24' E 011°56'1313.5
2014-Jul-20 04:34N 54°33' E 012°13'1514.8
2014-Jul-20 03:34N 54°43' E 012°31'1312.9
2014-Jul-20 02:34N 54°52' E 012°49'3 3.3
2014-Jul-20 01:33N 54°53' E 012°54'2 2.0
2014-Jul-20 00:33N 54°52' E 012°56'1110.9
2014-Jul-19 23:33N 54°54' E 013°15'1211.6
2014-Jul-19 22:33N 54°58' E 013°34'1414.0
2014-Jul-19 21:34N 55°03' E 013°57'  

Dump ship's entire track history